SANE/SDE METAR and TAF weather

Enter ICAO airport designator
Station Type Date Time Source
SANE METAR 2019/02/12 09:20 UTC NOAA

SANE 120920Z 23012KT 9999 RE DZ SCT009 OVC015 16/15 Q1025


Station Type Date Time Source
SANE Decoded METAR 2019/02/12 09:20 UTC NOAA

Santiago Del Estero Aero., Argentina (SANE) 27-46S 064-18W 199M
Feb 12, 2019 - 04:20 AM EST / 2019.02.12 0920 UTC
Wind: from the SW (230 degrees) at 14 MPH (12 KT):0
Visibility: greater than 7 mile(s):0
Sky conditions: overcast
Weather: drizzle
Temperature: 60 F (16 C)
Dew Point: 59 F (15 C)
Relative Humidity: 93%
Pressure (altimeter): 30.27 in. Hg (1025 hPa)
ob: SANE 120920Z 23012KT 9999 RE DZ SCT009 OVC015 16/15 Q1025
cycle: 9

Station Type Date Time Source
SANE TAF 2019/01/30 00:09 UTC NOAA

TAF TAF SANE 292300Z 3000/3024 05005KT 9999 SCT035 FEW040CB TX41/3019Z TN29/3010Z
TEMPO 3009/3012 02015KT 6000 RASH BKN020 FEW030 FEW040CB


Example: see airport list